Fort Scott, Kansas
Current Conditions -  °F | °C
As of 7:15 AM on Friday 31 Oct 2014 (Local Time) from KPTS Reporting Station
Overcast Overcast  
Wind Chill: 51°   Ceiling: 2500
Heat Index: 51°   Visibility: 10mi
Dew Point: 43°   Wind: 12mph
Humidity: 75%   Direction: 10°N
Pressure: 30.3"   Gusts: 24mph
Location:  37.84°N, 94.7°W
Report Text: KPTS 311215Z AUTO 01010G21KT 10SM OVC025 11/06 A3030 RMK AO2 T01050062
Loading
Personal Weather Stations






























Interactive Weather Map
Tropical Storm Tracking
New forecast layout! Learn more

10-Day Weather Forecast

Advertisements
Track Severe Weather on mobile